sensor_id;sensor_type;location;lat;lon;timestamp;temperature;humidity
35111;DHT22;21290;50.158;8.658;2023-03-14T00:00:53;10.30;99.90
35111;DHT22;21290;50.158;8.658;2023-03-14T00:03:20;10.30;99.90
35111;DHT22;21290;50.158;8.658;2023-03-14T00:05:46;10.30;99.90
35111;DHT22;21290;50.158;8.658;2023-03-14T00:08:13;10.30;99.90
35111;DHT22;21290;50.158;8.658;2023-03-14T00:10:40;10.30;99.90
35111;DHT22;21290;50.158;8.658;2023-03-14T00:13:07;10.30;99.90
35111;DHT22;21290;50.158;8.658;2023-03-14T00:15:34;10.40;99.90
35111;DHT22;21290;50.158;8.658;2023-03-14T00:18:01;10.40;99.90
35111;DHT22;21290;50.158;8.658;2023-03-14T00:20:27;10.30;99.90
35111;DHT22;21290;50.158;8.658;2023-03-14T00:22:54;10.40;99.90
35111;DHT22;21290;50.158;8.658;2023-03-14T00:25:20;10.40;99.90
35111;DHT22;21290;50.158;8.658;2023-03-14T00:27:50;10.40;99.90
35111;DHT22;21290;50.158;8.658;2023-03-14T00:30:17;10.40;99.90
35111;DHT22;21290;50.158;8.658;2023-03-14T00:32:43;10.40;99.90
35111;DHT22;21290;50.158;8.658;2023-03-14T00:35:10;10.40;99.90
35111;DHT22;21290;50.158;8.658;2023-03-14T00:37:37;10.30;99.90
35111;DHT22;21290;50.158;8.658;2023-03-14T00:40:04;10.30;99.90
35111;DHT22;21290;50.158;8.658;2023-03-14T00:42:33;10.30;99.90
35111;DHT22;21290;50.158;8.658;2023-03-14T00:45:00;10.30;99.90
35111;DHT22;21290;50.158;8.658;2023-03-14T00:47:27;10.20;99.90
35111;DHT22;21290;50.158;8.658;2023-03-14T00:49:54;10.20;99.90
35111;DHT22;21290;50.158;8.658;2023-03-14T00:52:20;10.20;99.90
35111;DHT22;21290;50.158;8.658;2023-03-14T00:54:47;10.20;99.90
35111;DHT22;21290;50.158;8.658;2023-03-14T00:57:13;10.30;99.90
35111;DHT22;21290;50.158;8.658;2023-03-14T01:21:46;10.30;99.90
35111;DHT22;21290;50.158;8.658;2023-03-14T01:24:12;10.30;99.90
35111;DHT22;21290;50.158;8.658;2023-03-14T01:26:39;10.40;99.90
35111;DHT22;21290;50.158;8.658;2023-03-14T01:29:05;10.40;99.90
35111;DHT22;21290;50.158;8.658;2023-03-14T01:31:32;10.40;99.90
35111;DHT22;21290;50.158;8.658;2023-03-14T01:33:59;10.50;99.90
35111;DHT22;21290;50.158;8.658;2023-03-14T01:36:26;10.50;99.90
35111;DHT22;21290;50.158;8.658;2023-03-14T01:38:52;10.50;99.90
35111;DHT22;21290;50.158;8.658;2023-03-14T01:41:22;10.60;99.90
35111;DHT22;21290;50.158;8.658;2023-03-14T01:43:49;10.60;99.90
35111;DHT22;21290;50.158;8.658;2023-03-14T01:46:28;10.70;99.90
35111;DHT22;21290;50.158;8.658;2023-03-14T01:49:09;10.70;99.90
35111;DHT22;21290;50.158;8.658;2023-03-14T01:51:42;10.70;99.90
35111;DHT22;21290;50.158;8.658;2023-03-14T01:54:16;10.70;99.90
35111;DHT22;21290;50.158;8.658;2023-03-14T01:56:48;10.70;99.90
35111;DHT22;21290;50.158;8.658;2023-03-14T01:59:16;10.70;99.90
35111;DHT22;21290;50.158;8.658;2023-03-14T02:01:45;10.60;99.90
35111;DHT22;21290;50.158;8.658;2023-03-14T02:04:13;10.60;99.90
35111;DHT22;21290;50.158;8.658;2023-03-14T02:06:55;10.60;99.90
35111;DHT22;21290;50.158;8.658;2023-03-14T02:09:23;10.60;99.90
35111;DHT22;21290;50.158;8.658;2023-03-14T02:11:50;10.70;99.90
35111;DHT22;21290;50.158;8.658;2023-03-14T02:14:37;10.60;99.90
35111;DHT22;21290;50.158;8.658;2023-03-14T02:17:05;10.70;99.90
35111;DHT22;21290;50.158;8.658;2023-03-14T02:22:32;10.70;99.90
35111;DHT22;21290;50.158;8.658;2023-03-14T02:28:04;10.70;99.90
35111;DHT22;21290;50.158;8.658;2023-03-14T02:30:32;10.70;99.90
35111;DHT22;21290;50.158;8.658;2023-03-14T02:33:04;10.70;99.90
35111;DHT22;21290;50.158;8.658;2023-03-14T02:35:41;10.70;99.90
35111;DHT22;21290;50.158;8.658;2023-03-14T02:38:31;10.60;99.90
35111;DHT22;21290;50.158;8.658;2023-03-14T02:40:59;10.60;99.90
35111;DHT22;21290;50.158;8.658;2023-03-14T02:43:26;10.60;99.90
35111;DHT22;21290;50.158;8.658;2023-03-14T02:45:54;10.60;99.90
35111;DHT22;21290;50.158;8.658;2023-03-14T02:48:37;10.60;99.90
35111;DHT22;21290;50.158;8.658;2023-03-14T02:51:06;10.60;99.90
35111;DHT22;21290;50.158;8.658;2023-03-14T02:53:36;10.60;99.90
35111;DHT22;21290;50.158;8.658;2023-03-14T02:56:03;10.60;99.90
35111;DHT22;21290;50.158;8.658;2023-03-14T02:58:30;10.60;99.90
35111;DHT22;21290;50.158;8.658;2023-03-14T03:00:57;10.60;99.90
35111;DHT22;21290;50.158;8.658;2023-03-14T03:03:24;10.70;99.90
35111;DHT22;21290;50.158;8.658;2023-03-14T03:05:52;10.60;99.90
35111;DHT22;21290;50.158;8.658;2023-03-14T03:08:21;10.60;99.90
35111;DHT22;21290;50.158;8.658;2023-03-14T03:10:48;10.60;99.90
35111;DHT22;21290;50.158;8.658;2023-03-14T03:13:16;10.60;99.90
35111;DHT22;21290;50.158;8.658;2023-03-14T03:15:43;10.60;99.90
35111;DHT22;21290;50.158;8.658;2023-03-14T03:18:09;10.60;99.90
35111;DHT22;21290;50.158;8.658;2023-03-14T03:20:36;10.60;99.90
35111;DHT22;21290;50.158;8.658;2023-03-14T03:23:04;10.60;99.90
35111;DHT22;21290;50.158;8.658;2023-03-14T03:25:30;10.60;99.90
35111;DHT22;21290;50.158;8.658;2023-03-14T03:27:57;10.60;99.90
35111;DHT22;21290;50.158;8.658;2023-03-14T03:30:24;10.60;99.90
35111;DHT22;21290;50.158;8.658;2023-03-14T03:32:50;10.60;99.90
35111;DHT22;21290;50.158;8.658;2023-03-14T03:35:17;10.60;99.90
35111;DHT22;21290;50.158;8.658;2023-03-14T03:37:43;10.50;99.90
35111;DHT22;21290;50.158;8.658;2023-03-14T03:40:10;10.50;99.90
35111;DHT22;21290;50.158;8.658;2023-03-14T03:42:37;10.50;99.90
35111;DHT22;21290;50.158;8.658;2023-03-14T03:45:04;10.40;99.90
35111;DHT22;21290;50.158;8.658;2023-03-14T03:47:31;10.20;99.90
35111;DHT22;21290;50.158;8.658;2023-03-14T03:49:58;10.20;99.90
35111;DHT22;21290;50.158;8.658;2023-03-14T03:52:24;10.20;99.90
35111;DHT22;21290;50.158;8.658;2023-03-14T03:54:51;10.20;99.90
35111;DHT22;21290;50.158;8.658;2023-03-14T03:57:17;10.20;99.90
35111;DHT22;21290;50.158;8.658;2023-03-14T03:59:44;10.20;99.90
35111;DHT22;21290;50.158;8.658;2023-03-14T04:02:11;10.20;99.90
35111;DHT22;21290;50.158;8.658;2023-03-14T04:04:38;10.20;99.90
35111;DHT22;21290;50.158;8.658;2023-03-14T04:07:05;10.20;99.90
35111;DHT22;21290;50.158;8.658;2023-03-14T04:09:32;10.20;99.90
35111;DHT22;21290;50.158;8.658;2023-03-14T04:11:59;10.20;99.90
35111;DHT22;21290;50.158;8.658;2023-03-14T04:14:26;10.30;99.90
35111;DHT22;21290;50.158;8.658;2023-03-14T04:16:53;10.30;99.90
35111;DHT22;21290;50.158;8.658;2023-03-14T04:19:20;10.30;99.90
35111;DHT22;21290;50.158;8.658;2023-03-14T04:21:47;10.30;99.90
35111;DHT22;21290;50.158;8.658;2023-03-14T04:24:14;10.30;99.90
35111;DHT22;21290;50.158;8.658;2023-03-14T04:26:41;10.40;99.90
35111;DHT22;21290;50.158;8.658;2023-03-14T04:29:08;10.40;99.90
35111;DHT22;21290;50.158;8.658;2023-03-14T04:31:37;10.40;99.90
35111;DHT22;21290;50.158;8.658;2023-03-14T04:34:04;10.40;99.90
35111;DHT22;21290;50.158;8.658;2023-03-14T04:36:31;10.50;99.90
35111;DHT22;21290;50.158;8.658;2023-03-14T04:38:58;10.50;99.90
35111;DHT22;21290;50.158;8.658;2023-03-14T04:41:24;10.40;99.90
35111;DHT22;21290;50.158;8.658;2023-03-14T04:43:52;10.50;99.90
35111;DHT22;21290;50.158;8.658;2023-03-14T04:46:19;10.50;99.90
35111;DHT22;21290;50.158;8.658;2023-03-14T04:48:45;10.50;99.90
35111;DHT22;21290;50.158;8.658;2023-03-14T04:51:12;10.60;99.90
35111;DHT22;21290;50.158;8.658;2023-03-14T04:53:39;10.60;99.90
35111;DHT22;21290;50.158;8.658;2023-03-14T04:56:07;10.60;99.90
35111;DHT22;21290;50.158;8.658;2023-03-14T04:58:34;10.60;99.90
35111;DHT22;21290;50.158;8.658;2023-03-14T05:01:05;10.60;99.90
35111;DHT22;21290;50.158;8.658;2023-03-14T05:03:32;10.60;99.90
35111;DHT22;21290;50.158;8.658;2023-03-14T05:05:59;10.60;99.90
35111;DHT22;21290;50.158;8.658;2023-03-14T05:08:27;10.60;99.90
35111;DHT22;21290;50.158;8.658;2023-03-14T05:10:55;10.60;99.90
35111;DHT22;21290;50.158;8.658;2023-03-14T05:13:22;10.60;99.90
35111;DHT22;21290;50.158;8.658;2023-03-14T05:15:50;10.60;99.90
35111;DHT22;21290;50.158;8.658;2023-03-14T05:18:20;10.60;99.90
35111;DHT22;21290;50.158;8.658;2023-03-14T05:20:50;10.60;99.90
35111;DHT22;21290;50.158;8.658;2023-03-14T05:23:17;10.60;99.90
35111;DHT22;21290;50.158;8.658;2023-03-14T05:25:44;10.60;99.90
35111;DHT22;21290;50.158;8.658;2023-03-14T05:28:11;10.70;99.90
35111;DHT22;21290;50.158;8.658;2023-03-14T05:30:38;10.60;99.90
35111;DHT22;21290;50.158;8.658;2023-03-14T05:33:04;10.60;99.90
35111;DHT22;21290;50.158;8.658;2023-03-14T05:35:31;10.60;99.90
35111;DHT22;21290;50.158;8.658;2023-03-14T05:37:58;10.60;99.90
35111;DHT22;21290;50.158;8.658;2023-03-14T05:40:25;10.60;99.90
35111;DHT22;21290;50.158;8.658;2023-03-14T05:42:52;10.60;99.90
35111;DHT22;21290;50.158;8.658;2023-03-14T05:45:19;10.60;99.90
35111;DHT22;21290;50.158;8.658;2023-03-14T05:47:46;10.60;99.90
35111;DHT22;21290;50.158;8.658;2023-03-14T05:50:14;10.60;99.90
35111;DHT22;21290;50.158;8.658;2023-03-14T05:52:40;10.60;99.90
35111;DHT22;21290;50.158;8.658;2023-03-14T05:55:08;10.60;99.90
35111;DHT22;21290;50.158;8.658;2023-03-14T05:57:35;10.60;99.90
35111;DHT22;21290;50.158;8.658;2023-03-14T06:00:02;10.50;99.90
35111;DHT22;21290;50.158;8.658;2023-03-14T06:02:29;10.50;99.90
35111;DHT22;21290;50.158;8.658;2023-03-14T06:04:56;10.50;99.90
35111;DHT22;21290;50.158;8.658;2023-03-14T06:07:23;10.50;99.90
35111;DHT22;21290;50.158;8.658;2023-03-14T06:09:50;10.50;99.90
35111;DHT22;21290;50.158;8.658;2023-03-14T06:12:17;10.50;99.90
35111;DHT22;21290;50.158;8.658;2023-03-14T06:14:44;10.50;99.90
35111;DHT22;21290;50.158;8.658;2023-03-14T06:17:11;10.50;99.90
35111;DHT22;21290;50.158;8.658;2023-03-14T06:19:38;10.50;99.90
35111;DHT22;21290;50.158;8.658;2023-03-14T06:22:04;10.50;99.90
35111;DHT22;21290;50.158;8.658;2023-03-14T06:24:31;10.50;99.90
35111;DHT22;21290;50.158;8.658;2023-03-14T06:26:58;10.60;99.90
35111;DHT22;21290;50.158;8.658;2023-03-14T06:29:25;10.60;99.90
35111;DHT22;21290;50.158;8.658;2023-03-14T06:31:52;10.60;99.90
35111;DHT22;21290;50.158;8.658;2023-03-14T06:34:19;10.50;99.90
35111;DHT22;21290;50.158;8.658;2023-03-14T06:36:46;10.50;99.90
35111;DHT22;21290;50.158;8.658;2023-03-14T06:39:13;10.50;99.90
35111;DHT22;21290;50.158;8.658;2023-03-14T06:41:39;10.50;99.90
35111;DHT22;21290;50.158;8.658;2023-03-14T06:44:06;10.60;99.90
35111;DHT22;21290;50.158;8.658;2023-03-14T06:46:33;10.50;99.90
35111;DHT22;21290;50.158;8.658;2023-03-14T06:49:00;10.50;99.90
35111;DHT22;21290;50.158;8.658;2023-03-14T06:51:26;10.60;99.90
35111;DHT22;21290;50.158;8.658;2023-03-14T06:53:53;10.60;99.90
35111;DHT22;21290;50.158;8.658;2023-03-14T06:56:20;10.60;99.90
35111;DHT22;21290;50.158;8.658;2023-03-14T06:58:46;10.60;99.90
35111;DHT22;21290;50.158;8.658;2023-03-14T07:01:25;10.60;99.90
35111;DHT22;21290;50.158;8.658;2023-03-14T07:03:53;10.60;99.90
35111;DHT22;21290;50.158;8.658;2023-03-14T07:06:19;10.60;99.90
35111;DHT22;21290;50.158;8.658;2023-03-14T07:08:46;10.60;99.90
35111;DHT22;21290;50.158;8.658;2023-03-14T07:11:13;10.60;99.90
35111;DHT22;21290;50.158;8.658;2023-03-14T07:13:40;10.60;99.90
35111;DHT22;21290;50.158;8.658;2023-03-14T07:16:07;10.60;99.90
35111;DHT22;21290;50.158;8.658;2023-03-14T07:18:35;10.70;99.90
35111;DHT22;21290;50.158;8.658;2023-03-14T07:21:01;10.70;99.90
35111;DHT22;21290;50.158;8.658;2023-03-14T07:23:28;10.70;99.90
35111;DHT22;21290;50.158;8.658;2023-03-14T07:25:56;10.70;99.90
35111;DHT22;21290;50.158;8.658;2023-03-14T07:28:22;10.80;99.90
35111;DHT22;21290;50.158;8.658;2023-03-14T07:30:49;10.80;99.90
35111;DHT22;21290;50.158;8.658;2023-03-14T07:33:16;10.80;99.90
35111;DHT22;21290;50.158;8.658;2023-03-14T07:35:42;10.80;99.90
35111;DHT22;21290;50.158;8.658;2023-03-14T07:38:09;10.80;99.90
35111;DHT22;21290;50.158;8.658;2023-03-14T07:40:36;10.80;99.90
35111;DHT22;21290;50.158;8.658;2023-03-14T07:43:02;10.80;99.90
35111;DHT22;21290;50.158;8.658;2023-03-14T07:45:29;10.70;99.90
35111;DHT22;21290;50.158;8.658;2023-03-14T07:47:56;10.70;99.90
35111;DHT22;21290;50.158;8.658;2023-03-14T07:50:27;10.70;99.90
35111;DHT22;21290;50.158;8.658;2023-03-14T07:52:54;10.70;99.90
35111;DHT22;21290;50.158;8.658;2023-03-14T07:55:21;10.70;99.90
35111;DHT22;21290;50.158;8.658;2023-03-14T07:57:48;10.60;99.90
35111;DHT22;21290;50.158;8.658;2023-03-14T08:00:15;10.60;99.90
35111;DHT22;21290;50.158;8.658;2023-03-14T08:02:43;10.60;99.90
35111;DHT22;21290;50.158;8.658;2023-03-14T08:05:10;10.70;99.90
35111;DHT22;21290;50.158;8.658;2023-03-14T08:07:38;10.70;99.90
35111;DHT22;21290;50.158;8.658;2023-03-14T08:10:06;10.70;99.90
35111;DHT22;21290;50.158;8.658;2023-03-14T08:12:34;10.80;99.90
35111;DHT22;21290;50.158;8.658;2023-03-14T08:15:01;10.80;99.90
35111;DHT22;21290;50.158;8.658;2023-03-14T08:17:28;10.80;99.90
35111;DHT22;21290;50.158;8.658;2023-03-14T08:19:55;10.80;99.90
35111;DHT22;21290;50.158;8.658;2023-03-14T08:22:21;10.90;99.90
35111;DHT22;21290;50.158;8.658;2023-03-14T08:24:48;10.80;99.90
35111;DHT22;21290;50.158;8.658;2023-03-14T08:27:14;10.80;99.90
35111;DHT22;21290;50.158;8.658;2023-03-14T08:29:41;10.80;99.90
35111;DHT22;21290;50.158;8.658;2023-03-14T08:32:08;10.80;99.90
35111;DHT22;21290;50.158;8.658;2023-03-14T08:34:35;10.70;99.90
35111;DHT22;21290;50.158;8.658;2023-03-14T08:37:01;10.70;99.90
35111;DHT22;21290;50.158;8.658;2023-03-14T08:39:36;10.60;99.90
35111;DHT22;21290;50.158;8.658;2023-03-14T08:42:03;10.60;99.90
35111;DHT22;21290;50.158;8.658;2023-03-14T08:44:29;10.60;99.90
35111;DHT22;21290;50.158;8.658;2023-03-14T08:46:57;10.70;99.90
35111;DHT22;21290;50.158;8.658;2023-03-14T08:49:24;10.70;99.90
35111;DHT22;21290;50.158;8.658;2023-03-14T08:51:50;10.80;99.90
35111;DHT22;21290;50.158;8.658;2023-03-14T08:54:17;10.80;99.90
35111;DHT22;21290;50.158;8.658;2023-03-14T08:56:43;10.90;99.90
35111;DHT22;21290;50.158;8.658;2023-03-14T08:59:10;11.00;99.90
35111;DHT22;21290;50.158;8.658;2023-03-14T09:01:37;11.00;99.90
35111;DHT22;21290;50.158;8.658;2023-03-14T09:04:04;11.20;99.90
35111;DHT22;21290;50.158;8.658;2023-03-14T09:06:30;11.40;99.90
35111;DHT22;21290;50.158;8.658;2023-03-14T09:08:57;11.50;99.90
35111;DHT22;21290;50.158;8.658;2023-03-14T09:11:24;11.50;99.90
35111;DHT22;21290;50.158;8.658;2023-03-14T09:13:50;11.50;99.90
35111;DHT22;21290;50.158;8.658;2023-03-14T09:16:17;11.40;99.90
35111;DHT22;21290;50.158;8.658;2023-03-14T09:18:44;11.50;99.90
35111;DHT22;21290;50.158;8.658;2023-03-14T09:21:10;11.50;99.90
35111;DHT22;21290;50.158;8.658;2023-03-14T09:23:38;11.60;99.90
35111;DHT22;21290;50.158;8.658;2023-03-14T09:26:05;11.80;99.90
35111;DHT22;21290;50.158;8.658;2023-03-14T09:28:32;11.80;99.90
35111;DHT22;21290;50.158;8.658;2023-03-14T09:31:06;11.90;99.90
35111;DHT22;21290;50.158;8.658;2023-03-14T09:33:32;11.90;99.90
35111;DHT22;21290;50.158;8.658;2023-03-14T09:35:59;11.90;99.90
35111;DHT22;21290;50.158;8.658;2023-03-14T09:38:27;11.80;99.90
35111;DHT22;21290;50.158;8.658;2023-03-14T09:40:57;11.70;99.90
35111;DHT22;21290;50.158;8.658;2023-03-14T09:43:26;11.80;99.90
35111;DHT22;21290;50.158;8.658;2023-03-14T09:45:54;11.70;99.90
35111;DHT22;21290;50.158;8.658;2023-03-14T09:48:22;11.60;99.90
35111;DHT22;21290;50.158;8.658;2023-03-14T09:50:54;11.40;99.90
35111;DHT22;21290;50.158;8.658;2023-03-14T09:53:23;11.20;99.90
35111;DHT22;21290;50.158;8.658;2023-03-14T09:55:50;11.10;99.90
35111;DHT22;21290;50.158;8.658;2023-03-14T09:58:19;11.00;99.90
35111;DHT22;21290;50.158;8.658;2023-03-14T10:00:46;10.90;99.90
35111;DHT22;21290;50.158;8.658;2023-03-14T10:05:40;11.00;99.90
35111;DHT22;21290;50.158;8.658;2023-03-14T10:08:10;11.00;99.90
35111;DHT22;21290;50.158;8.658;2023-03-14T10:10:37;11.10;99.90
35111;DHT22;21290;50.158;8.658;2023-03-14T10:13:14;11.20;99.90
35111;DHT22;21290;50.158;8.658;2023-03-14T10:15:41;11.20;99.90
35111;DHT22;21290;50.158;8.658;2023-03-14T10:18:11;11.30;99.90
35111;DHT22;21290;50.158;8.658;2023-03-14T10:20:40;11.40;99.90
35111;DHT22;21290;50.158;8.658;2023-03-14T10:25:38;11.60;99.90
35111;DHT22;21290;50.158;8.658;2023-03-14T10:28:05;11.60;99.90
35111;DHT22;21290;50.158;8.658;2023-03-14T10:30:39;11.70;99.90
35111;DHT22;21290;50.158;8.658;2023-03-14T10:33:11;11.70;99.90
35111;DHT22;21290;50.158;8.658;2023-03-14T10:35:38;11.80;99.90
35111;DHT22;21290;50.158;8.658;2023-03-14T10:38:05;11.80;99.90
35111;DHT22;21290;50.158;8.658;2023-03-14T10:40:37;11.90;99.90
35111;DHT22;21290;50.158;8.658;2023-03-14T10:43:05;11.90;99.90
35111;DHT22;21290;50.158;8.658;2023-03-14T10:45:40;11.80;99.90
35111;DHT22;21290;50.158;8.658;2023-03-14T10:50:53;11.40;99.90
35111;DHT22;21290;50.158;8.658;2023-03-14T10:53:20;11.30;99.90
35111;DHT22;21290;50.158;8.658;2023-03-14T10:55:47;11.20;99.90
35111;DHT22;21290;50.158;8.658;2023-03-14T10:58:20;11.10;99.90
35111;DHT22;21290;50.158;8.658;2023-03-14T11:00:50;11.00;99.90
35111;DHT22;21290;50.158;8.658;2023-03-14T11:03:17;10.90;99.90
35111;DHT22;21290;50.158;8.658;2023-03-14T11:05:49;10.70;99.90
35111;DHT22;21290;50.158;8.658;2023-03-14T11:08:42;10.60;99.90
35111;DHT22;21290;50.158;8.658;2023-03-14T11:11:19;10.60;99.90
35111;DHT22;21290;50.158;8.658;2023-03-14T11:13:51;10.50;99.90
35111;DHT22;21290;50.158;8.658;2023-03-14T11:16:22;10.50;99.90
35111;DHT22;21290;50.158;8.658;2023-03-14T11:19:00;10.40;99.90
35111;DHT22;21290;50.158;8.658;2023-03-14T11:32:01;10.20;99.90
35111;DHT22;21290;50.158;8.658;2023-03-14T11:34:28;10.20;99.90
35111;DHT22;21290;50.158;8.658;2023-03-14T11:36:59;10.20;99.90
35111;DHT22;21290;50.158;8.658;2023-03-14T11:39:26;10.20;99.90
35111;DHT22;21290;50.158;8.658;2023-03-14T11:41:57;10.20;99.90
35111;DHT22;21290;50.158;8.658;2023-03-14T11:44:25;10.30;99.90
35111;DHT22;21290;50.158;8.658;2023-03-14T11:46:55;10.40;99.90
35111;DHT22;21290;50.158;8.658;2023-03-14T11:49:40;10.50;99.90
35111;DHT22;21290;50.158;8.658;2023-03-14T11:52:14;10.50;99.90
35111;DHT22;21290;50.158;8.658;2023-03-14T11:54:47;10.50;99.90
35111;DHT22;21290;50.158;8.658;2023-03-14T11:57:16;10.60;99.90
35111;DHT22;21290;50.158;8.658;2023-03-14T11:59:46;10.60;99.90
35111;DHT22;21290;50.158;8.658;2023-03-14T12:04:50;10.60;99.90
35111;DHT22;21290;50.158;8.658;2023-03-14T12:07:19;10.60;99.90
35111;DHT22;21290;50.158;8.658;2023-03-14T12:09:46;10.70;99.90
35111;DHT22;21290;50.158;8.658;2023-03-14T12:12:17;10.60;99.90
35111;DHT22;21290;50.158;8.658;2023-03-14T12:14:45;10.40;99.90
35111;DHT22;21290;50.158;8.658;2023-03-14T12:17:20;10.10;99.90
35111;DHT22;21290;50.158;8.658;2023-03-14T12:19:47;9.90;99.90
35111;DHT22;21290;50.158;8.658;2023-03-14T12:22:21;9.60;99.90
35111;DHT22;21290;50.158;8.658;2023-03-14T12:25:00;9.50;99.90
35111;DHT22;21290;50.158;8.658;2023-03-14T12:35:32;9.60;99.90
35111;DHT22;21290;50.158;8.658;2023-03-14T12:38:00;9.60;99.90
35111;DHT22;21290;50.158;8.658;2023-03-14T12:40:30;9.60;99.90
35111;DHT22;21290;50.158;8.658;2023-03-14T12:42:58;9.70;99.90
35111;DHT22;21290;50.158;8.658;2023-03-14T12:50:34;9.90;99.90
35111;DHT22;21290;50.158;8.658;2023-03-14T12:56:02;10.20;99.90
35111;DHT22;21290;50.158;8.658;2023-03-14T12:58:39;10.40;99.90
35111;DHT22;21290;50.158;8.658;2023-03-14T13:01:17;10.50;99.90
35111;DHT22;21290;50.158;8.658;2023-03-14T13:03:45;10.40;99.90
35111;DHT22;21290;50.158;8.658;2023-03-14T13:06:13;10.20;99.90
35111;DHT22;21290;50.158;8.658;2023-03-14T13:09:06;10.10;99.90
35111;DHT22;21290;50.158;8.658;2023-03-14T13:11:46;10.10;99.90
35111;DHT22;21290;50.158;8.658;2023-03-14T13:14:12;10.20;99.90
35111;DHT22;21290;50.158;8.658;2023-03-14T13:16:40;10.30;99.90
35111;DHT22;21290;50.158;8.658;2023-03-14T13:19:11;10.40;99.90
35111;DHT22;21290;50.158;8.658;2023-03-14T13:21:41;10.60;99.90
35111;DHT22;21290;50.158;8.658;2023-03-14T13:24:21;10.70;99.90
35111;DHT22;21290;50.158;8.658;2023-03-14T13:26:48;10.90;99.90
35111;DHT22;21290;50.158;8.658;2023-03-14T13:29:25;11.00;99.90
35111;DHT22;21290;50.158;8.658;2023-03-14T13:31:53;11.10;99.90
35111;DHT22;21290;50.158;8.658;2023-03-14T13:34:20;11.10;99.90
35111;DHT22;21290;50.158;8.658;2023-03-14T13:36:51;11.20;99.90
35111;DHT22;21290;50.158;8.658;2023-03-14T13:39:19;11.40;99.90
35111;DHT22;21290;50.158;8.658;2023-03-14T13:41:48;11.70;99.90
35111;DHT22;21290;50.158;8.658;2023-03-14T13:44:25;11.90;99.90
35111;DHT22;21290;50.158;8.658;2023-03-14T13:46:52;12.10;99.90
35111;DHT22;21290;50.158;8.658;2023-03-14T13:49:24;12.20;99.90
35111;DHT22;21290;50.158;8.658;2023-03-14T13:51:51;12.30;99.90
35111;DHT22;21290;50.158;8.658;2023-03-14T13:54:18;12.00;99.90
35111;DHT22;21290;50.158;8.658;2023-03-14T13:56:46;11.50;99.90
35111;DHT22;21290;50.158;8.658;2023-03-14T13:59:26;11.10;99.90
35111;DHT22;21290;50.158;8.658;2023-03-14T14:01:53;10.80;99.90
35111;DHT22;21290;50.158;8.658;2023-03-14T14:04:22;10.60;99.90
35111;DHT22;21290;50.158;8.658;2023-03-14T14:06:50;10.50;99.90
35111;DHT22;21290;50.158;8.658;2023-03-14T14:09:35;10.50;99.90
35111;DHT22;21290;50.158;8.658;2023-03-14T14:12:04;10.50;99.90
35111;DHT22;21290;50.158;8.658;2023-03-14T14:14:46;10.50;99.90
35111;DHT22;21290;50.158;8.658;2023-03-14T14:17:21;10.50;99.90
35111;DHT22;21290;50.158;8.658;2023-03-14T14:19:49;10.70;99.90
35111;DHT22;21290;50.158;8.658;2023-03-14T14:22:16;10.80;99.90
35111;DHT22;21290;50.158;8.658;2023-03-14T14:24:43;10.90;99.90
35111;DHT22;21290;50.158;8.658;2023-03-14T14:29:36;10.60;99.90
35111;DHT22;21290;50.158;8.658;2023-03-14T14:34:39;9.90;99.90
35111;DHT22;21290;50.158;8.658;2023-03-14T14:37:20;9.50;99.90
35111;DHT22;21290;50.158;8.658;2023-03-14T14:39:48;9.20;99.90
35111;DHT22;21290;50.158;8.658;2023-03-14T14:42:15;9.00;99.90
35111;DHT22;21290;50.158;8.658;2023-03-14T14:44:45;8.90;99.90
35111;DHT22;21290;50.158;8.658;2023-03-14T14:47:12;9.00;99.90
35111;DHT22;21290;50.158;8.658;2023-03-14T14:49:39;9.10;99.90
35111;DHT22;21290;50.158;8.658;2023-03-14T14:52:09;9.10;99.90
35111;DHT22;21290;50.158;8.658;2023-03-14T14:54:43;9.10;99.90
35111;DHT22;21290;50.158;8.658;2023-03-14T14:57:17;9.10;99.90
35111;DHT22;21290;50.158;8.658;2023-03-14T14:59:44;9.00;99.90
35111;DHT22;21290;50.158;8.658;2023-03-14T15:02:31;9.00;99.90
35111;DHT22;21290;50.158;8.658;2023-03-14T15:04:58;8.90;99.90
35111;DHT22;21290;50.158;8.658;2023-03-14T15:07:25;8.90;99.90
35111;DHT22;21290;50.158;8.658;2023-03-14T15:09:53;8.90;99.90
35111;DHT22;21290;50.158;8.658;2023-03-14T15:12:20;8.70;99.90
35111;DHT22;21290;50.158;8.658;2023-03-14T15:14:47;8.60;99.90
35111;DHT22;21290;50.158;8.658;2023-03-14T15:17:14;8.60;99.90
35111;DHT22;21290;50.158;8.658;2023-03-14T15:19:41;8.50;99.90
35111;DHT22;21290;50.158;8.658;2023-03-14T15:22:13;8.50;99.90
35111;DHT22;21290;50.158;8.658;2023-03-14T15:24:41;8.40;99.90
35111;DHT22;21290;50.158;8.658;2023-03-14T15:27:12;8.40;99.90
35111;DHT22;21290;50.158;8.658;2023-03-14T15:29:39;8.30;99.90
35111;DHT22;21290;50.158;8.658;2023-03-14T15:32:05;8.30;99.90
35111;DHT22;21290;50.158;8.658;2023-03-14T15:34:33;8.10;99.90
35111;DHT22;21290;50.158;8.658;2023-03-14T15:36:59;8.00;99.90
35111;DHT22;21290;50.158;8.658;2023-03-14T15:39:26;8.00;99.90
35111;DHT22;21290;50.158;8.658;2023-03-14T15:41:52;7.90;99.90
35111;DHT22;21290;50.158;8.658;2023-03-14T15:44:19;7.90;99.90
35111;DHT22;21290;50.158;8.658;2023-03-14T15:46:45;7.80;99.90
35111;DHT22;21290;50.158;8.658;2023-03-14T15:49:12;7.90;99.90
35111;DHT22;21290;50.158;8.658;2023-03-14T15:51:38;7.90;99.90
35111;DHT22;21290;50.158;8.658;2023-03-14T15:54:05;8.10;99.90
35111;DHT22;21290;50.158;8.658;2023-03-14T15:56:31;8.20;99.90
35111;DHT22;21290;50.158;8.658;2023-03-14T15:58:58;8.30;99.90
35111;DHT22;21290;50.158;8.658;2023-03-14T16:01:25;8.40;99.90
35111;DHT22;21290;50.158;8.658;2023-03-14T16:03:51;8.40;99.90
35111;DHT22;21290;50.158;8.658;2023-03-14T16:06:19;8.40;99.90
35111;DHT22;21290;50.158;8.658;2023-03-14T16:08:45;8.30;99.90
35111;DHT22;21290;50.158;8.658;2023-03-14T16:11:12;8.30;99.90
35111;DHT22;21290;50.158;8.658;2023-03-14T16:13:40;8.20;99.90
35111;DHT22;21290;50.158;8.658;2023-03-14T16:16:07;8.20;99.90
35111;DHT22;21290;50.158;8.658;2023-03-14T16:18:34;8.10;99.90
35111;DHT22;21290;50.158;8.658;2023-03-14T16:21:02;8.10;99.90
35111;DHT22;21290;50.158;8.658;2023-03-14T16:23:31;8.00;99.90
35111;DHT22;21290;50.158;8.658;2023-03-14T16:25:58;8.00;99.90
35111;DHT22;21290;50.158;8.658;2023-03-14T16:28:25;7.90;99.90
35111;DHT22;21290;50.158;8.658;2023-03-14T16:30:52;7.70;99.90
35111;DHT22;21290;50.158;8.658;2023-03-14T16:33:18;7.60;99.90
35111;DHT22;21290;50.158;8.658;2023-03-14T16:35:57;7.50;99.90
35111;DHT22;21290;50.158;8.658;2023-03-14T16:38:26;7.30;99.90
35111;DHT22;21290;50.158;8.658;2023-03-14T16:40:59;7.20;99.90
35111;DHT22;21290;50.158;8.658;2023-03-14T16:43:26;7.20;99.90
35111;DHT22;21290;50.158;8.658;2023-03-14T16:45:53;7.10;99.90
35111;DHT22;21290;50.158;8.658;2023-03-14T16:48:22;7.10;99.90
35111;DHT22;21290;50.158;8.658;2023-03-14T16:50:49;6.90;99.90